createdAt,value
2023-04-28T00:01:11.095Z,2.95
2023-04-28T00:03:37.590Z,2.80
2023-04-28T00:06:04.280Z,2.78
2023-04-28T00:08:30.629Z,2.80
2023-04-28T00:10:56.967Z,2.80
2023-04-28T00:13:23.637Z,2.75
2023-04-28T00:15:52.709Z,3.08
2023-04-28T00:18:19.983Z,2.90
2023-04-28T00:20:46.676Z,2.63
2023-04-28T00:23:13.042Z,3.00
2023-04-28T00:25:39.422Z,3.05
2023-04-28T00:28:05.760Z,2.78
2023-04-28T00:30:32.109Z,2.97
2023-04-28T00:32:58.560Z,3.15
2023-04-28T00:35:24.972Z,2.55
2023-04-28T00:37:51.259Z,2.95
2023-04-28T00:40:17.604Z,2.47
2023-04-28T00:42:43.960Z,2.88
2023-04-28T00:45:10.667Z,3.10
2023-04-28T00:47:38.211Z,3.15
2023-04-28T00:50:06.316Z,3.05
2023-04-28T00:52:32.632Z,2.53
2023-04-28T00:54:59.494Z,2.63
2023-04-28T00:57:25.996Z,2.80
2023-04-28T00:59:52.347Z,3.20
2023-04-28T01:02:19.151Z,2.92
2023-04-28T01:04:46.210Z,2.72
2023-04-28T01:07:12.914Z,2.90
2023-04-28T01:09:39.238Z,2.30
2023-04-28T01:12:05.877Z,2.83
2023-04-28T01:14:33.606Z,3.10
2023-04-28T01:17:00.287Z,2.83
2023-04-28T01:19:27.799Z,2.40
2023-04-28T01:21:54.183Z,2.50
2023-04-28T01:24:20.913Z,2.60
2023-04-28T01:26:47.297Z,2.65
2023-04-28T01:29:13.699Z,2.70
2023-04-28T01:31:41.086Z,2.97
2023-04-28T01:34:07.794Z,2.67
2023-04-28T01:36:37.201Z,2.70
2023-04-28T01:39:04.422Z,2.35
2023-04-28T01:41:30.996Z,2.80
2023-04-28T01:43:57.286Z,2.70
2023-04-28T01:46:23.646Z,2.63
2023-04-28T01:48:50.087Z,3.03
2023-04-28T01:51:16.427Z,3.13
2023-04-28T01:53:42.781Z,3.25
2023-04-28T01:56:09.248Z,3.20
2023-04-28T01:58:35.710Z,3.03
2023-04-28T02:01:02.014Z,3.25
2023-04-28T02:03:28.920Z,2.80
2023-04-28T02:05:55.622Z,3.15
2023-04-28T02:08:21.935Z,3.60
2023-04-28T02:10:48.244Z,2.90
2023-04-28T02:13:14.566Z,3.28
2023-04-28T02:15:42.530Z,3.17
2023-04-28T02:18:10.073Z,3.13
2023-04-28T02:20:36.382Z,3.30
2023-04-28T02:23:02.738Z,2.97
2023-04-28T02:25:29.049Z,3.65
2023-04-28T02:27:55.504Z,3.72
2023-04-28T02:30:21.880Z,3.30
2023-04-28T02:32:48.375Z,2.88
2023-04-28T02:35:14.927Z,3.15
2023-04-28T02:37:41.264Z,3.25
2023-04-28T02:40:08.348Z,3.20
2023-04-28T02:42:34.650Z,3.80
2023-04-28T02:45:01.076Z,2.83
2023-04-28T02:47:27.436Z,3.33
2023-04-28T02:49:53.773Z,3.33
2023-04-28T02:52:20.104Z,3.50
2023-04-28T02:54:48.835Z,3.08
2023-04-28T02:57:15.154Z,2.88
2023-04-28T02:59:41.889Z,3.20
2023-04-28T03:02:09.235Z,3.20
2023-04-28T03:04:35.728Z,3.55
2023-04-28T03:07:02.238Z,3.20
2023-04-28T03:09:28.530Z,3.30
2023-04-28T03:11:54.961Z,2.80
2023-04-28T03:14:21.274Z,3.28
2023-04-28T03:16:47.808Z,3.05
2023-04-28T03:19:14.245Z,2.55
2023-04-28T03:21:40.576Z,3.33
2023-04-28T03:24:06.965Z,3.60
2023-04-28T03:26:34.013Z,3.40
2023-04-28T03:29:00.368Z,3.13
2023-04-28T03:31:26.687Z,3.70
2023-04-28T03:33:53.062Z,3.25
2023-04-28T03:36:19.397Z,3.67
2023-04-28T03:38:45.704Z,3.05
2023-04-28T03:41:12.015Z,3.72
2023-04-28T03:43:38.344Z,4.40
2023-04-28T03:46:04.977Z,3.35
2023-04-28T03:48:31.466Z,3.63
2023-04-28T03:50:57.878Z,3.90
2023-04-28T03:53:24.292Z,3.38
2023-04-28T03:55:50.916Z,3.50
2023-04-28T03:58:17.259Z,4.28
2023-04-28T04:00:43.664Z,4.10
2023-04-28T04:03:10.177Z,2.92
2023-04-28T04:05:36.692Z,4.10
2023-04-28T04:08:03.216Z,4.03
2023-04-28T04:10:29.657Z,3.95
2023-04-28T04:12:56.010Z,3.72
2023-04-28T04:15:22.338Z,4.32
2023-04-28T04:17:48.740Z,4.68
2023-04-28T04:20:15.279Z,4.70
2023-04-28T04:22:41.806Z,4.95
2023-04-28T04:25:08.246Z,4.53
2023-04-28T04:27:34.577Z,4.75
2023-04-28T04:30:00.895Z,5.38
2023-04-28T04:32:27.570Z,5.25
2023-04-28T04:34:53.899Z,5.20
2023-04-28T04:37:20.275Z,5.15
2023-04-28T04:39:46.578Z,4.80
2023-04-28T04:42:23.973Z,5.25
2023-04-28T04:44:51.483Z,4.47
2023-04-28T04:47:17.810Z,5.18
2023-04-28T04:49:44.310Z,4.82
2023-04-28T04:52:10.669Z,4.78
2023-04-28T04:54:36.996Z,5.38
2023-04-28T04:57:03.416Z,5.72
2023-04-28T04:59:29.849Z,4.70
2023-04-28T05:01:56.648Z,4.50
2023-04-28T05:04:23.496Z,5.97
2023-04-28T05:06:50.143Z,4.75
2023-04-28T05:09:17.036Z,5.55
2023-04-28T05:11:43.405Z,5.82
2023-04-28T05:14:09.700Z,5.93
2023-04-28T05:16:36.103Z,5.13
2023-04-28T05:19:02.448Z,6.15
2023-04-28T05:21:28.779Z,7.05
2023-04-28T05:23:55.874Z,6.03
2023-04-28T05:26:22.564Z,6.75
2023-04-28T05:28:49.210Z,6.50
2023-04-28T05:31:16.373Z,5.28
2023-04-28T05:33:42.677Z,6.68
2023-04-28T05:36:09.482Z,6.78
2023-04-28T05:38:35.980Z,5.60
2023-04-28T05:41:02.512Z,7.60
2023-04-28T05:43:28.838Z,7.13
2023-04-28T05:45:55.226Z,7.03
2023-04-28T05:48:21.630Z,7.40
2023-04-28T05:50:47.975Z,7.40
2023-04-28T05:53:14.308Z,7.20
2023-04-28T05:55:41.024Z,6.53
2023-04-28T05:58:08.418Z,7.57
2023-04-28T06:00:35.433Z,7.22
2023-04-28T06:03:01.932Z,6.47
2023-04-28T06:05:28.710Z,6.03
2023-04-28T06:07:56.077Z,8.40
2023-04-28T06:10:23.564Z,8.68
2023-04-28T06:12:49.913Z,8.68
2023-04-28T06:15:16.369Z,7.22
2023-04-28T06:17:42.839Z,8.40
2023-04-28T06:20:11.055Z,8.77
2023-04-28T06:22:37.453Z,5.65
2023-04-28T06:25:04.048Z,7.30
2023-04-28T06:27:32.694Z,6.25
2023-04-28T06:29:59.493Z,7.38
2023-04-28T06:32:26.282Z,8.63
2023-04-28T06:34:52.607Z,7.65
2023-04-28T06:37:18.955Z,8.70
2023-04-28T06:39:45.242Z,7.28
2023-04-28T06:42:11.566Z,8.38
2023-04-28T06:44:37.911Z,9.18
2023-04-28T06:47:04.444Z,8.13
2023-04-28T06:49:31.248Z,7.75
2023-04-28T06:51:57.647Z,8.57
2023-04-28T06:54:24.004Z,8.40
2023-04-28T06:56:50.330Z,7.75
2023-04-28T06:59:16.748Z,8.05
2023-04-28T07:01:43.157Z,7.93
2023-04-28T07:04:09.727Z,8.95
2023-04-28T07:06:36.233Z,8.38
2023-04-28T07:09:02.971Z,7.85
2023-04-28T07:11:29.378Z,8.00
2023-04-28T07:13:55.778Z,8.48
2023-04-28T07:16:22.287Z,8.48
2023-04-28T07:18:48.682Z,7.05
2023-04-28T07:21:15.008Z,8.88
2023-04-28T07:23:41.771Z,8.32
2023-04-28T07:26:08.281Z,8.27
2023-04-28T07:28:34.965Z,7.70
2023-04-28T07:31:01.348Z,8.32
2023-04-28T07:33:28.020Z,8.85
2023-04-28T07:35:54.377Z,8.93
2023-04-28T07:38:20.914Z,8.90
2023-04-28T07:40:47.420Z,8.10
2023-04-28T07:43:13.929Z,8.73
2023-04-28T07:45:40.793Z,9.30
2023-04-28T07:48:07.601Z,9.57
2023-04-28T07:50:34.472Z,7.72
2023-04-28T07:53:00.884Z,8.02
2023-04-28T07:55:27.218Z,9.52
2023-04-28T07:57:54.521Z,8.68
2023-04-28T08:00:21.299Z,9.35
2023-04-28T08:02:47.825Z,8.43
2023-04-28T08:05:14.736Z,9.90
2023-04-28T08:07:41.304Z,8.75
2023-04-28T08:10:10.429Z,9.13
2023-04-28T08:12:36.846Z,8.93
2023-04-28T08:15:03.863Z,8.32
2023-04-28T08:17:30.229Z,8.60
2023-04-28T08:19:56.573Z,8.00
2023-04-28T08:22:22.875Z,8.60
2023-04-28T08:24:49.259Z,8.27
2023-04-28T08:27:15.765Z,7.40
2023-04-28T08:29:42.330Z,7.65
2023-04-28T08:32:09.050Z,8.30
2023-04-28T08:34:35.617Z,8.85
2023-04-28T08:37:02.052Z,7.53
2023-04-28T08:39:28.946Z,7.47
2023-04-28T08:41:56.712Z,7.25
2023-04-28T08:44:23.679Z,7.50
2023-04-28T08:46:54.288Z,7.45
2023-04-28T08:49:28.104Z,7.68
2023-04-28T08:51:59.114Z,6.90
2023-04-28T08:54:36.249Z,7.45
2023-04-28T08:57:04.227Z,6.80
2023-04-28T08:59:31.307Z,7.95
2023-04-28T09:01:58.445Z,7.57
2023-04-28T09:04:25.330Z,7.40
2023-04-28T09:06:54.423Z,7.40
2023-04-28T09:09:27.877Z,7.03
2023-04-28T09:11:58.494Z,7.22
2023-04-28T09:14:26.236Z,7.93
2023-04-28T09:16:52.853Z,7.05
2023-04-28T09:19:19.645Z,6.50
2023-04-28T09:21:54.632Z,6.63
2023-04-28T09:24:35.065Z,6.88
2023-04-28T09:27:05.138Z,6.60
2023-04-28T09:29:32.054Z,5.90
2023-04-28T09:32:15.898Z,6.53
2023-04-28T09:34:45.534Z,6.50
2023-04-28T09:37:22.458Z,6.65
2023-04-28T09:39:53.981Z,6.55
2023-04-28T09:42:46.885Z,6.60
2023-04-28T09:45:15.213Z,6.65
2023-04-28T09:47:43.347Z,6.80
2023-04-28T09:50:14.312Z,7.13
2023-04-28T09:52:48.747Z,6.60
2023-04-28T09:55:15.327Z,6.38
2023-04-28T09:57:44.490Z,6.25
2023-04-28T10:00:11.142Z,6.72
2023-04-28T10:05:09.994Z,7.15
2023-04-28T10:07:37.473Z,7.15
2023-04-28T10:10:04.357Z,7.63
2023-04-28T10:12:32.745Z,7.30
2023-04-28T10:15:00.059Z,7.72
2023-04-28T10:17:27.207Z,8.02
2023-04-28T10:19:54.389Z,7.32
2023-04-28T10:22:45.995Z,7.43
2023-04-28T10:25:12.303Z,7.80
2023-04-28T10:27:41.520Z,7.25
2023-04-28T10:30:22.788Z,8.48
2023-04-28T10:33:14.348Z,7.60
2023-04-28T10:35:46.007Z,7.80
2023-04-28T10:38:17.042Z,8.60
2023-04-28T10:40:50.644Z,8.55
2023-04-28T10:43:26.899Z,8.80
2023-04-28T10:45:57.938Z,8.50
2023-04-28T10:48:30.817Z,9.57
2023-04-28T10:51:02.920Z,9.43
2023-04-28T10:53:44.750Z,8.10
2023-04-28T10:56:18.656Z,8.77
2023-04-28T10:58:57.708Z,8.88
2023-04-28T11:01:25.386Z,8.70
2023-04-28T11:04:04.001Z,9.05
2023-04-28T11:06:40.081Z,9.02
2023-04-28T11:09:12.596Z,9.35
2023-04-28T11:11:40.013Z,8.77
2023-04-28T11:14:18.427Z,8.68
2023-04-28T11:16:59.525Z,8.60
2023-04-28T11:19:28.593Z,8.30
2023-04-28T11:21:57.194Z,8.63
2023-04-28T11:24:28.775Z,8.07
2023-04-28T11:26:58.904Z,7.63
2023-04-28T11:29:34.954Z,7.50
2023-04-28T11:32:03.001Z,6.88
2023-04-28T11:34:29.617Z,7.15
2023-04-28T11:36:56.135Z,7.35
2023-04-28T11:39:30.842Z,7.07
2023-04-28T11:41:58.421Z,6.50
2023-04-28T11:44:27.399Z,7.20
2023-04-28T11:46:57.198Z,6.72
2023-04-28T11:49:24.738Z,8.07
2023-04-28T11:51:52.001Z,7.05
2023-04-28T11:54:26.445Z,7.20
2023-04-28T11:56:55.602Z,7.50
2023-04-28T11:59:27.622Z,7.07
2023-04-28T12:02:02.814Z,6.38
2023-04-28T12:04:30.374Z,7.10
2023-04-28T12:07:03.076Z,7.45
2023-04-28T12:09:29.662Z,8.00
2023-04-28T12:12:02.183Z,8.07
2023-04-28T12:14:30.051Z,8.48
2023-04-28T12:16:56.927Z,8.10
2023-04-28T12:19:23.279Z,7.30
2023-04-28T12:22:03.410Z,6.97
2023-04-28T12:24:31.001Z,7.47
2023-04-28T12:27:18.392Z,6.47
2023-04-28T12:29:46.574Z,7.25
2023-04-28T12:32:13.759Z,9.00
2023-04-28T12:34:41.802Z,8.40
2023-04-28T12:37:08.225Z,7.68
2023-04-28T12:39:40.362Z,8.70
2023-04-28T12:42:07.114Z,7.88
2023-04-28T12:44:35.471Z,8.38
2023-04-28T12:47:10.940Z,7.85
2023-04-28T12:49:38.235Z,9.10
2023-04-28T12:52:05.664Z,9.80
2023-04-28T12:54:31.987Z,9.40
2023-04-28T12:56:58.300Z,9.70
2023-04-28T12:59:24.816Z,8.73
2023-04-28T13:01:51.364Z,10.23
2023-04-28T13:04:18.875Z,10.13
2023-04-28T13:06:45.550Z,8.05
2023-04-28T13:09:12.498Z,8.10
2023-04-28T13:11:39.376Z,10.07
2023-04-28T13:14:06.148Z,9.13
2023-04-28T13:16:32.662Z,6.75
2023-04-28T13:18:59.072Z,8.27
2023-04-28T13:21:26.689Z,8.27
2023-04-28T13:23:54.082Z,8.23
2023-04-28T13:26:20.868Z,9.10
2023-04-28T13:28:47.685Z,9.40
2023-04-28T13:31:14.869Z,5.30
2023-04-28T13:33:41.214Z,8.00
2023-04-28T13:36:08.905Z,8.18
2023-04-28T13:38:35.864Z,5.38
2023-04-28T13:41:03.156Z,3.10
2023-04-28T13:43:30.949Z,2.97
2023-04-28T13:45:57.841Z,4.28
2023-04-28T13:48:24.325Z,2.53
2023-04-28T13:50:50.700Z,1.98
2023-04-28T13:53:17.240Z,2.95
2023-04-28T13:55:43.761Z,2.85
2023-04-28T13:58:10.102Z,2.63
2023-04-28T14:00:37.621Z,2.70
2023-04-28T14:03:04.347Z,3.42
2023-04-28T14:05:36.093Z,2.88
2023-04-28T14:08:10.039Z,3.45
2023-04-28T14:10:36.524Z,3.60
2023-04-28T14:13:03.041Z,2.83
2023-04-28T14:15:30.632Z,2.95
2023-04-28T14:17:57.360Z,4.03
2023-04-28T14:20:23.764Z,3.28
2023-04-28T14:22:50.429Z,3.72
2023-04-28T14:25:18.490Z,4.57
2023-04-28T14:27:45.097Z,3.65
2023-04-28T14:30:11.594Z,4.13
2023-04-28T14:32:39.969Z,3.45
2023-04-28T14:35:06.715Z,3.80
2023-04-28T14:37:33.259Z,3.80
2023-04-28T14:40:00.853Z,3.60
2023-04-28T14:42:32.218Z,3.85
2023-04-28T14:45:02.889Z,3.58
2023-04-28T14:47:30.385Z,3.60
2023-04-28T14:49:57.939Z,4.82
2023-04-28T14:52:28.991Z,4.10
2023-04-28T14:54:56.647Z,3.03
2023-04-28T14:57:23.978Z,2.72
2023-04-28T14:59:52.070Z,2.15
2023-04-28T15:02:20.463Z,1.65
2023-04-28T15:04:48.167Z,0.85
2023-04-28T15:07:14.917Z,1.48
2023-04-28T15:09:41.509Z,2.17
2023-04-28T15:12:07.894Z,1.88
2023-04-28T15:14:34.325Z,1.35
2023-04-28T15:17:00.663Z,1.80
2023-04-28T15:19:26.963Z,2.05
2023-04-28T15:21:53.470Z,1.63
2023-04-28T15:24:23.483Z,2.33
2023-04-28T15:26:49.879Z,3.10
2023-04-28T15:29:16.833Z,1.55
2023-04-28T15:31:43.263Z,2.78
2023-04-28T15:34:09.865Z,2.72
2023-04-28T15:36:39.857Z,3.53
2023-04-28T15:39:07.342Z,3.80
2023-04-28T15:41:34.700Z,4.70
2023-04-28T15:44:01.616Z,3.40
2023-04-28T15:46:28.962Z,3.85
2023-04-28T15:48:56.042Z,3.75
2023-04-28T15:51:23.281Z,3.33
2023-04-28T15:53:50.735Z,3.92
2023-04-28T15:56:19.534Z,2.78
2023-04-28T15:58:47.639Z,2.33
2023-04-28T16:01:14.186Z,1.80
2023-04-28T16:03:41.027Z,1.80
2023-04-28T16:06:08.111Z,1.90
2023-04-28T16:08:35.527Z,1.58
2023-04-28T16:11:03.657Z,2.53
2023-04-28T16:13:36.747Z,2.05
2023-04-28T16:16:04.064Z,2.30
2023-04-28T16:18:30.746Z,3.13
2023-04-28T16:20:57.045Z,3.08
2023-04-28T16:23:23.314Z,5.05
2023-04-28T16:25:50.707Z,4.20
2023-04-28T16:28:17.408Z,5.75
2023-04-28T16:30:43.769Z,6.40
2023-04-28T16:33:10.169Z,6.18
2023-04-28T16:35:36.765Z,3.55
2023-04-28T16:38:03.342Z,4.35
2023-04-28T16:40:29.728Z,3.97
2023-04-28T16:42:56.377Z,4.13
2023-04-28T16:45:23.558Z,4.03
2023-04-28T16:47:49.967Z,3.65
2023-04-28T16:50:17.184Z,2.65
2023-04-28T16:52:43.541Z,4.75
2023-04-28T16:55:10.674Z,5.15
2023-04-28T16:57:37.367Z,4.10
2023-04-28T17:00:05.022Z,4.38
2023-04-28T17:02:32.564Z,5.13
2023-04-28T17:04:58.955Z,5.22
2023-04-28T17:07:25.745Z,5.78
2023-04-28T17:09:52.644Z,4.90
2023-04-28T17:12:20.894Z,7.15
2023-04-28T17:14:47.577Z,7.38
2023-04-28T17:17:14.053Z,6.57
2023-04-28T17:19:41.987Z,6.35
2023-04-28T17:22:08.386Z,6.47
2023-04-28T17:24:34.902Z,8.65
2023-04-28T17:27:01.424Z,7.80
2023-04-28T17:29:27.743Z,8.20
2023-04-28T17:31:54.445Z,5.40
2023-04-28T17:34:21.022Z,4.70
2023-04-28T17:36:47.811Z,5.35
2023-04-28T17:39:16.159Z,4.95
2023-04-28T17:41:43.392Z,5.32
2023-04-28T17:44:09.961Z,5.82
2023-04-28T17:46:38.411Z,6.32
2023-04-28T17:49:05.257Z,3.00
2023-04-28T17:51:32.213Z,6.50
2023-04-28T17:53:59.019Z,5.97
2023-04-28T17:56:25.617Z,7.25
2023-04-28T17:58:52.359Z,5.28
2023-04-28T18:01:18.749Z,6.32
2023-04-28T18:03:45.225Z,6.53
2023-04-28T18:06:12.039Z,6.15
2023-04-28T18:08:38.813Z,6.10
2023-04-28T18:11:06.903Z,5.90
2023-04-28T18:13:33.331Z,6.30
2023-04-28T18:16:00.387Z,7.15
2023-04-28T18:18:29.851Z,2.88
2023-04-28T18:20:58.942Z,5.50
2023-04-28T18:23:26.414Z,6.03
2023-04-28T18:25:52.774Z,5.25
2023-04-28T18:28:19.086Z,5.60
2023-04-28T18:30:45.351Z,4.10
2023-04-28T18:33:11.737Z,3.85
2023-04-28T18:35:38.136Z,3.65
2023-04-28T18:38:05.196Z,5.00
2023-04-28T18:40:33.407Z,4.13
2023-04-28T18:43:01.990Z,4.60
2023-04-28T18:45:30.932Z,3.92
2023-04-28T18:47:58.482Z,3.30
2023-04-28T18:50:25.268Z,1.63
2023-04-28T18:52:51.933Z,2.95
2023-04-28T18:55:18.320Z,4.40
2023-04-28T18:57:44.716Z,4.30
2023-04-28T19:00:11.556Z,3.63
2023-04-28T19:02:38.015Z,4.00
2023-04-28T19:05:05.593Z,3.70
2023-04-28T19:07:32.782Z,4.10
2023-04-28T19:09:59.334Z,4.10
2023-04-28T19:12:25.897Z,4.72
2023-04-28T19:14:52.478Z,5.03
2023-04-28T19:17:18.808Z,4.80
2023-04-28T19:19:45.315Z,4.03
2023-04-28T19:22:37.589Z,2.35
2023-04-28T19:25:05.310Z,3.05
2023-04-28T19:27:33.479Z,3.78
2023-04-28T19:30:01.126Z,2.80
2023-04-28T19:32:28.251Z,3.15
2023-04-28T19:34:54.953Z,3.80
2023-04-28T19:37:21.960Z,4.28
2023-04-28T19:39:50.397Z,3.42
2023-04-28T19:42:18.342Z,4.43
2023-04-28T19:44:46.488Z,4.18
2023-04-28T19:47:13.157Z,3.97
2023-04-28T19:49:41.285Z,3.80
2023-04-28T19:52:09.923Z,2.63
2023-04-28T19:54:38.755Z,1.98
2023-04-28T19:57:05.384Z,1.50
2023-04-28T19:59:43.442Z,2.25
2023-04-28T20:02:10.079Z,2.42
2023-04-28T20:04:37.580Z,2.30
2023-04-28T20:07:04.688Z,1.90
2023-04-28T20:09:33.610Z,1.88
2023-04-28T20:12:00.243Z,2.20
2023-04-28T20:14:27.623Z,3.50
2023-04-28T20:16:53.920Z,4.50
2023-04-28T20:19:20.235Z,5.35
2023-04-28T20:21:46.695Z,3.58
2023-04-28T20:24:13.031Z,6.63
2023-04-28T20:26:39.400Z,7.43
2023-04-28T20:29:07.887Z,8.15
2023-04-28T20:31:35.070Z,6.90
2023-04-28T20:34:02.929Z,7.18
2023-04-28T20:36:30.311Z,9.35
2023-04-28T20:38:56.644Z,10.57
2023-04-28T20:41:23.642Z,11.48
2023-04-28T20:43:52.272Z,13.30
2023-04-28T20:46:18.905Z,12.35
2023-04-28T20:48:45.229Z,8.75
2023-04-28T20:51:11.744Z,12.23
2023-04-28T20:53:39.509Z,12.00
2023-04-28T20:56:06.434Z,10.98
2023-04-28T20:58:32.764Z,9.75
2023-04-28T21:00:59.220Z,7.97
2023-04-28T21:03:25.709Z,12.18
2023-04-28T21:05:52.147Z,9.90
2023-04-28T21:08:18.447Z,9.18
2023-04-28T21:10:44.911Z,10.25
2023-04-28T21:13:11.954Z,12.68
2023-04-28T21:15:41.496Z,9.70
2023-04-28T21:18:08.025Z,11.98
2023-04-28T21:20:34.462Z,11.65
2023-04-28T21:23:00.854Z,12.73
2023-04-28T21:25:27.260Z,11.70
2023-04-28T21:27:53.654Z,9.88
2023-04-28T21:30:20.612Z,12.45
2023-04-28T21:32:47.033Z,12.48
2023-04-28T21:35:13.549Z,8.95
2023-04-28T21:37:39.935Z,10.45
2023-04-28T21:40:08.803Z,14.68
2023-04-28T21:42:35.339Z,10.25
2023-04-28T21:45:01.777Z,11.30
2023-04-28T21:47:28.321Z,14.13
2023-04-28T21:49:54.695Z,14.20
2023-04-28T21:52:20.990Z,10.65
2023-04-28T21:54:47.349Z,13.60
2023-04-28T21:57:15.603Z,13.60
2023-04-28T21:59:42.102Z,15.50
2023-04-28T22:02:08.733Z,15.98
2023-04-28T22:04:35.670Z,14.68
2023-04-28T22:07:02.163Z,14.32
2023-04-28T22:09:28.827Z,13.02
2023-04-28T22:11:55.189Z,15.57
2023-04-28T22:14:38.649Z,13.18
2023-04-28T22:17:07.112Z,11.40
2023-04-28T22:19:33.615Z,15.50
2023-04-28T22:21:59.928Z,15.45
2023-04-28T22:24:27.537Z,14.65
2023-04-28T22:26:54.662Z,17.17
2023-04-28T22:29:21.375Z,18.27
2023-04-28T22:31:47.665Z,18.20
2023-04-28T22:34:14.071Z,19.95
2023-04-28T22:36:40.379Z,18.38
2023-04-28T22:39:06.796Z,13.85
2023-04-28T22:41:33.147Z,21.35
2023-04-28T22:43:59.499Z,20.52
2023-04-28T22:46:26.177Z,23.67
2023-04-28T22:48:52.613Z,23.60
2023-04-28T22:51:18.946Z,23.52
2023-04-28T22:53:46.429Z,25.98
2023-04-28T22:56:12.817Z,24.38
2023-04-28T22:58:39.136Z,22.95
2023-04-28T23:01:05.637Z,25.33
2023-04-28T23:03:33.519Z,25.90
2023-04-28T23:05:59.971Z,24.65
2023-04-28T23:08:26.255Z,16.17
2023-04-28T23:10:56.202Z,18.67
2023-04-28T23:13:22.577Z,18.73
2023-04-28T23:15:48.930Z,19.95
2023-04-28T23:18:15.284Z,20.20
2023-04-28T23:20:43.967Z,19.98
2023-04-28T23:23:10.297Z,11.50
2023-04-28T23:25:37.149Z,15.65
2023-04-28T23:28:03.528Z,17.70
2023-04-28T23:30:29.834Z,12.60
2023-04-28T23:32:56.425Z,15.75
2023-04-28T23:35:22.893Z,15.98
2023-04-28T23:37:49.230Z,15.93
2023-04-28T23:40:15.670Z,14.45
2023-04-28T23:42:41.999Z,14.75
2023-04-28T23:45:09.744Z,12.77
2023-04-28T23:47:36.289Z,15.98
2023-04-28T23:50:03.393Z,16.35
2023-04-28T23:52:29.764Z,14.35
2023-04-28T23:54:56.107Z,16.00
2023-04-28T23:57:22.793Z,14.90
2023-04-28T23:59:49.166Z,14.50
